Humphrey, Nebraska
Current Conditions -  °F | °C
As of 7:15 PM on Wednesday 22 Oct 2014 (Local Time) from KOLU Reporting Station
Scattered Clouds Scattered Clouds  
Wind Chill: 63°   Ceiling: Unl
Heat Index: 63°   Visibility: 10mi
Dew Point: 57°   Wind: 5mph
Humidity: 82%   Direction: 190°S
Pressure: 30.03"   Gusts: NA
Location:  41.69°N, 97.48°W
Report Text: KOLU 230015Z AUTO 19004KT 10SM FEW032 FEW040 SCT048 17/14 A3003 RMK AO1 P0002
Loading
Personal Weather Stations






























Interactive Weather Map
Tropical Storm Tracking
New forecast layout! Learn more

10-Day Weather Forecast

Advertisements
Track Severe Weather on mobile